sensor_id;sensor_type;location;lat;lon;timestamp;P1;durP1;ratioP1;P2;durP2;ratioP2
4569;SDS011;2297;51.442;6.996;2023-03-01T00:01:25;13.70;;;8.88;;
4569;SDS011;2297;51.442;6.996;2023-03-01T00:03:54;12.48;;;8.25;;
4569;SDS011;2297;51.442;6.996;2023-03-01T00:06:21;16.83;;;8.70;;
4569;SDS011;2297;51.442;6.996;2023-03-01T00:08:49;13.18;;;8.63;;
4569;SDS011;2297;51.442;6.996;2023-03-01T00:11:16;14.70;;;8.70;;
4569;SDS011;2297;51.442;6.996;2023-03-01T00:13:48;13.27;;;8.52;;
4569;SDS011;2297;51.442;6.996;2023-03-01T00:16:17;15.82;;;8.40;;
4569;SDS011;2297;51.442;6.996;2023-03-01T00:18:45;12.88;;;8.25;;
4569;SDS011;2297;51.442;6.996;2023-03-01T00:21:12;15.38;;;9.18;;
4569;SDS011;2297;51.442;6.996;2023-03-01T00:23:39;13.80;;;8.90;;
4569;SDS011;2297;51.442;6.996;2023-03-01T00:26:07;14.57;;;8.55;;
4569;SDS011;2297;51.442;6.996;2023-03-01T00:28:35;18.50;;;9.15;;
4569;SDS011;2297;51.442;6.996;2023-03-01T00:31:04;15.30;;;8.82;;
4569;SDS011;2297;51.442;6.996;2023-03-01T00:33:31;16.38;;;8.43;;
4569;SDS011;2297;51.442;6.996;2023-03-01T00:35:58;16.15;;;8.93;;
4569;SDS011;2297;51.442;6.996;2023-03-01T00:38:25;16.00;;;9.77;;
4569;SDS011;2297;51.442;6.996;2023-03-01T00:40:52;15.07;;;9.65;;
4569;SDS011;2297;51.442;6.996;2023-03-01T00:43:19;17.55;;;8.90;;
4569;SDS011;2297;51.442;6.996;2023-03-01T00:45:45;16.13;;;9.52;;
4569;SDS011;2297;51.442;6.996;2023-03-01T00:48:13;13.88;;;8.70;;
4569;SDS011;2297;51.442;6.996;2023-03-01T00:50:40;14.77;;;9.15;;
4569;SDS011;2297;51.442;6.996;2023-03-01T00:53:06;14.63;;;9.23;;
4569;SDS011;2297;51.442;6.996;2023-03-01T00:55:33;15.35;;;9.13;;
4569;SDS011;2297;51.442;6.996;2023-03-01T00:58:01;13.00;;;8.75;;
4569;SDS011;2297;51.442;6.996;2023-03-01T01:00:28;15.00;;;8.77;;
4569;SDS011;2297;51.442;6.996;2023-03-01T01:02:55;15.25;;;8.43;;
4569;SDS011;2297;51.442;6.996;2023-03-01T01:05:23;16.33;;;9.45;;
4569;SDS011;2297;51.442;6.996;2023-03-01T01:07:49;17.77;;;8.63;;
4569;SDS011;2297;51.442;6.996;2023-03-01T01:10:16;11.30;;;8.65;;
4569;SDS011;2297;51.442;6.996;2023-03-01T01:12:46;15.50;;;9.57;;
4569;SDS011;2297;51.442;6.996;2023-03-01T01:15:13;15.15;;;9.30;;
4569;SDS011;2297;51.442;6.996;2023-03-01T01:17:41;14.77;;;8.60;;
4569;SDS011;2297;51.442;6.996;2023-03-01T01:20:09;13.38;;;8.68;;
4569;SDS011;2297;51.442;6.996;2023-03-01T01:22:38;13.63;;;8.80;;
4569;SDS011;2297;51.442;6.996;2023-03-01T01:25:05;18.33;;;9.02;;
4569;SDS011;2297;51.442;6.996;2023-03-01T01:27:32;14.50;;;9.30;;
4569;SDS011;2297;51.442;6.996;2023-03-01T01:29:58;15.30;;;9.68;;
4569;SDS011;2297;51.442;6.996;2023-03-01T01:32:25;14.05;;;8.60;;
4569;SDS011;2297;51.442;6.996;2023-03-01T01:34:52;14.15;;;9.05;;
4569;SDS011;2297;51.442;6.996;2023-03-01T01:37:18;15.90;;;9.43;;
4569;SDS011;2297;51.442;6.996;2023-03-01T01:39:46;13.27;;;8.90;;
4569;SDS011;2297;51.442;6.996;2023-03-01T01:42:14;12.98;;;8.93;;
4569;SDS011;2297;51.442;6.996;2023-03-01T01:44:42;16.27;;;8.98;;
4569;SDS011;2297;51.442;6.996;2023-03-01T01:47:12;15.65;;;8.95;;
4569;SDS011;2297;51.442;6.996;2023-03-01T01:52:51;14.85;;;9.10;;
4569;SDS011;2297;51.442;6.996;2023-03-01T01:55:21;14.13;;;9.30;;
4569;SDS011;2297;51.442;6.996;2023-03-01T01:57:53;13.35;;;8.73;;
4569;SDS011;2297;51.442;6.996;2023-03-01T02:00:29;14.90;;;9.15;;
4569;SDS011;2297;51.442;6.996;2023-03-01T02:02:56;16.55;;;8.90;;
4569;SDS011;2297;51.442;6.996;2023-03-01T02:05:28;13.95;;;8.80;;
4569;SDS011;2297;51.442;6.996;2023-03-01T02:08:02;16.40;;;9.23;;
4569;SDS011;2297;51.442;6.996;2023-03-01T02:10:30;37.58;;;10.50;;
4569;SDS011;2297;51.442;6.996;2023-03-01T02:13:00;17.27;;;8.90;;
4569;SDS011;2297;51.442;6.996;2023-03-01T02:15:31;12.55;;;8.68;;
4569;SDS011;2297;51.442;6.996;2023-03-01T02:17:59;14.70;;;8.98;;
4569;SDS011;2297;51.442;6.996;2023-03-01T02:20:30;16.92;;;9.07;;
4569;SDS011;2297;51.442;6.996;2023-03-01T02:23:01;14.45;;;8.32;;
4569;SDS011;2297;51.442;6.996;2023-03-01T02:25:32;14.48;;;8.27;;
4569;SDS011;2297;51.442;6.996;2023-03-01T02:28:07;16.45;;;9.25;;
4569;SDS011;2297;51.442;6.996;2023-03-01T02:30:38;14.05;;;8.45;;
4569;SDS011;2297;51.442;6.996;2023-03-01T02:33:26;19.73;;;9.30;;
4569;SDS011;2297;51.442;6.996;2023-03-01T02:35:52;13.00;;;9.13;;
4569;SDS011;2297;51.442;6.996;2023-03-01T02:38:20;16.00;;;9.63;;
4569;SDS011;2297;51.442;6.996;2023-03-01T02:40:48;16.08;;;8.90;;
4569;SDS011;2297;51.442;6.996;2023-03-01T02:43:16;17.77;;;9.82;;
4569;SDS011;2297;51.442;6.996;2023-03-01T02:45:49;15.15;;;9.15;;
4569;SDS011;2297;51.442;6.996;2023-03-01T02:48:16;14.60;;;8.93;;
4569;SDS011;2297;51.442;6.996;2023-03-01T02:50:46;15.75;;;9.52;;
4569;SDS011;2297;51.442;6.996;2023-03-01T02:53:29;14.35;;;9.32;;
4569;SDS011;2297;51.442;6.996;2023-03-01T02:56:02;11.80;;;7.07;;
4569;SDS011;2297;51.442;6.996;2023-03-01T02:58:29;16.73;;;9.05;;
4569;SDS011;2297;51.442;6.996;2023-03-01T03:00:57;15.15;;;8.93;;
4569;SDS011;2297;51.442;6.996;2023-03-01T03:03:25;18.35;;;9.35;;
4569;SDS011;2297;51.442;6.996;2023-03-01T03:05:52;15.70;;;8.70;;
4569;SDS011;2297;51.442;6.996;2023-03-01T03:08:19;16.88;;;9.55;;
4569;SDS011;2297;51.442;6.996;2023-03-01T03:10:48;15.80;;;9.32;;
4569;SDS011;2297;51.442;6.996;2023-03-01T03:13:15;17.52;;;9.57;;
4569;SDS011;2297;51.442;6.996;2023-03-01T03:15:42;16.95;;;9.63;;
4569;SDS011;2297;51.442;6.996;2023-03-01T03:18:11;17.58;;;9.70;;
4569;SDS011;2297;51.442;6.996;2023-03-01T03:20:40;16.67;;;9.30;;
4569;SDS011;2297;51.442;6.996;2023-03-01T03:23:07;14.40;;;9.30;;
4569;SDS011;2297;51.442;6.996;2023-03-01T03:25:34;17.65;;;9.88;;
4569;SDS011;2297;51.442;6.996;2023-03-01T03:28:03;18.05;;;9.00;;
4569;SDS011;2297;51.442;6.996;2023-03-01T03:30:34;15.73;;;9.38;;
4569;SDS011;2297;51.442;6.996;2023-03-01T03:33:04;15.82;;;8.85;;
4569;SDS011;2297;51.442;6.996;2023-03-01T03:35:34;15.50;;;9.07;;
4569;SDS011;2297;51.442;6.996;2023-03-01T03:38:06;16.05;;;8.93;;
4569;SDS011;2297;51.442;6.996;2023-03-01T03:40:42;14.65;;;8.75;;
4569;SDS011;2297;51.442;6.996;2023-03-01T03:43:11;14.00;;;9.23;;
4569;SDS011;2297;51.442;6.996;2023-03-01T03:45:39;15.18;;;8.77;;
4569;SDS011;2297;51.442;6.996;2023-03-01T03:48:07;15.05;;;8.77;;
4569;SDS011;2297;51.442;6.996;2023-03-01T03:50:36;16.02;;;9.45;;
4569;SDS011;2297;51.442;6.996;2023-03-01T03:53:04;15.05;;;9.50;;
4569;SDS011;2297;51.442;6.996;2023-03-01T03:55:33;54.20;;;23.50;;
4569;SDS011;2297;51.442;6.996;2023-03-01T03:58:00;30.52;;;15.05;;
4569;SDS011;2297;51.442;6.996;2023-03-01T04:00:32;16.90;;;9.93;;
4569;SDS011;2297;51.442;6.996;2023-03-01T04:02:59;19.30;;;9.88;;
4569;SDS011;2297;51.442;6.996;2023-03-01T04:05:26;15.43;;;9.02;;
4569;SDS011;2297;51.442;6.996;2023-03-01T04:07:55;20.30;;;9.13;;
4569;SDS011;2297;51.442;6.996;2023-03-01T04:10:27;21.75;;;9.65;;
4569;SDS011;2297;51.442;6.996;2023-03-01T04:12:55;16.15;;;9.13;;
4569;SDS011;2297;51.442;6.996;2023-03-01T04:15:22;62.05;;;25.27;;
4569;SDS011;2297;51.442;6.996;2023-03-01T04:17:50;24.20;;;12.02;;
4569;SDS011;2297;51.442;6.996;2023-03-01T04:20:19;17.85;;;9.20;;
4569;SDS011;2297;51.442;6.996;2023-03-01T04:22:50;14.93;;;8.98;;
4569;SDS011;2297;51.442;6.996;2023-03-01T04:25:19;14.48;;;8.65;;
4569;SDS011;2297;51.442;6.996;2023-03-01T04:27:46;18.75;;;9.57;;
4569;SDS011;2297;51.442;6.996;2023-03-01T04:30:12;18.55;;;9.45;;
4569;SDS011;2297;51.442;6.996;2023-03-01T04:32:39;15.55;;;9.23;;
4569;SDS011;2297;51.442;6.996;2023-03-01T04:35:06;14.82;;;8.70;;
4569;SDS011;2297;51.442;6.996;2023-03-01T04:37:34;13.82;;;8.85;;
4569;SDS011;2297;51.442;6.996;2023-03-01T04:40:00;16.55;;;9.48;;
4569;SDS011;2297;51.442;6.996;2023-03-01T04:42:38;18.73;;;9.85;;
4569;SDS011;2297;51.442;6.996;2023-03-01T04:45:06;15.05;;;8.80;;
4569;SDS011;2297;51.442;6.996;2023-03-01T04:47:38;17.30;;;9.18;;
4569;SDS011;2297;51.442;6.996;2023-03-01T04:50:05;17.67;;;9.75;;
4569;SDS011;2297;51.442;6.996;2023-03-01T04:52:33;17.33;;;8.80;;
4569;SDS011;2297;51.442;6.996;2023-03-01T04:55:00;16.00;;;9.98;;
4569;SDS011;2297;51.442;6.996;2023-03-01T04:57:26;14.45;;;9.25;;
4569;SDS011;2297;51.442;6.996;2023-03-01T04:59:54;16.20;;;9.07;;
4569;SDS011;2297;51.442;6.996;2023-03-01T05:02:21;16.55;;;9.60;;
4569;SDS011;2297;51.442;6.996;2023-03-01T05:04:48;16.42;;;9.82;;
4569;SDS011;2297;51.442;6.996;2023-03-01T05:07:14;20.83;;;9.68;;
4569;SDS011;2297;51.442;6.996;2023-03-01T05:09:44;19.88;;;10.05;;
4569;SDS011;2297;51.442;6.996;2023-03-01T05:12:11;18.00;;;9.52;;
4569;SDS011;2297;51.442;6.996;2023-03-01T05:14:37;17.30;;;9.35;;
4569;SDS011;2297;51.442;6.996;2023-03-01T05:17:05;18.98;;;9.48;;
4569;SDS011;2297;51.442;6.996;2023-03-01T05:19:32;21.17;;;9.93;;
4569;SDS011;2297;51.442;6.996;2023-03-01T05:21:59;19.45;;;10.50;;
4569;SDS011;2297;51.442;6.996;2023-03-01T05:24:30;20.35;;;9.30;;
4569;SDS011;2297;51.442;6.996;2023-03-01T05:26:58;17.92;;;9.80;;
4569;SDS011;2297;51.442;6.996;2023-03-01T05:29:25;17.55;;;9.20;;
4569;SDS011;2297;51.442;6.996;2023-03-01T05:31:54;17.95;;;8.82;;
4569;SDS011;2297;51.442;6.996;2023-03-01T05:34:24;17.48;;;9.75;;
4569;SDS011;2297;51.442;6.996;2023-03-01T05:36:52;15.40;;;9.25;;
4569;SDS011;2297;51.442;6.996;2023-03-01T05:39:19;18.25;;;9.98;;
4569;SDS011;2297;51.442;6.996;2023-03-01T05:41:47;16.98;;;9.50;;
4569;SDS011;2297;51.442;6.996;2023-03-01T05:44:27;18.65;;;9.13;;
4569;SDS011;2297;51.442;6.996;2023-03-01T05:46:55;17.75;;;10.32;;
4569;SDS011;2297;51.442;6.996;2023-03-01T05:49:22;16.88;;;10.38;;
4569;SDS011;2297;51.442;6.996;2023-03-01T05:51:51;16.08;;;9.15;;
4569;SDS011;2297;51.442;6.996;2023-03-01T05:54:19;20.48;;;9.82;;
4569;SDS011;2297;51.442;6.996;2023-03-01T05:56:47;18.10;;;10.18;;
4569;SDS011;2297;51.442;6.996;2023-03-01T05:59:13;17.55;;;9.15;;
4569;SDS011;2297;51.442;6.996;2023-03-01T06:01:41;16.42;;;9.50;;
4569;SDS011;2297;51.442;6.996;2023-03-01T06:04:08;16.80;;;9.45;;
4569;SDS011;2297;51.442;6.996;2023-03-01T06:06:34;16.20;;;9.70;;
4569;SDS011;2297;51.442;6.996;2023-03-01T06:09:04;16.83;;;9.65;;
4569;SDS011;2297;51.442;6.996;2023-03-01T06:11:33;17.70;;;10.00;;
4569;SDS011;2297;51.442;6.996;2023-03-01T06:14:00;17.15;;;9.88;;
4569;SDS011;2297;51.442;6.996;2023-03-01T06:16:26;19.27;;;10.80;;
4569;SDS011;2297;51.442;6.996;2023-03-01T06:18:53;20.17;;;9.85;;
4569;SDS011;2297;51.442;6.996;2023-03-01T06:21:19;16.70;;;9.88;;
4569;SDS011;2297;51.442;6.996;2023-03-01T06:23:46;21.35;;;9.75;;
4569;SDS011;2297;51.442;6.996;2023-03-01T06:26:14;17.63;;;9.95;;
4569;SDS011;2297;51.442;6.996;2023-03-01T06:28:40;17.17;;;9.60;;
4569;SDS011;2297;51.442;6.996;2023-03-01T06:31:07;33.47;;;10.98;;
4569;SDS011;2297;51.442;6.996;2023-03-01T06:33:34;18.05;;;10.30;;
4569;SDS011;2297;51.442;6.996;2023-03-01T06:36:01;17.95;;;10.30;;
4569;SDS011;2297;51.442;6.996;2023-03-01T06:38:27;18.10;;;10.07;;
4569;SDS011;2297;51.442;6.996;2023-03-01T06:40:54;27.00;;;13.15;;
4569;SDS011;2297;51.442;6.996;2023-03-01T06:43:22;18.58;;;9.90;;
4569;SDS011;2297;51.442;6.996;2023-03-01T06:45:49;17.98;;;9.77;;
4569;SDS011;2297;51.442;6.996;2023-03-01T06:48:16;16.67;;;9.65;;
4569;SDS011;2297;51.442;6.996;2023-03-01T06:50:43;17.55;;;9.93;;
4569;SDS011;2297;51.442;6.996;2023-03-01T06:53:10;17.63;;;9.57;;
4569;SDS011;2297;51.442;6.996;2023-03-01T06:55:36;17.67;;;9.93;;
4569;SDS011;2297;51.442;6.996;2023-03-01T06:58:03;20.63;;;10.20;;
4569;SDS011;2297;51.442;6.996;2023-03-01T07:00:31;18.17;;;10.00;;
4569;SDS011;2297;51.442;6.996;2023-03-01T07:02:58;17.08;;;9.40;;
4569;SDS011;2297;51.442;6.996;2023-03-01T07:05:26;20.73;;;10.98;;
4569;SDS011;2297;51.442;6.996;2023-03-01T07:07:53;17.80;;;10.52;;
4569;SDS011;2297;51.442;6.996;2023-03-01T07:10:21;18.90;;;10.75;;
4569;SDS011;2297;51.442;6.996;2023-03-01T07:12:47;17.45;;;9.77;;
4569;SDS011;2297;51.442;6.996;2023-03-01T07:15:14;17.35;;;9.57;;
4569;SDS011;2297;51.442;6.996;2023-03-01T07:17:42;19.77;;;10.18;;
4569;SDS011;2297;51.442;6.996;2023-03-01T07:20:10;17.20;;;9.00;;
4569;SDS011;2297;51.442;6.996;2023-03-01T07:22:39;18.23;;;10.40;;
4569;SDS011;2297;51.442;6.996;2023-03-01T07:25:06;17.63;;;9.95;;
4569;SDS011;2297;51.442;6.996;2023-03-01T07:27:33;20.67;;;9.80;;
4569;SDS011;2297;51.442;6.996;2023-03-01T07:29:59;19.80;;;10.68;;
4569;SDS011;2297;51.442;6.996;2023-03-01T07:32:26;17.35;;;10.65;;
4569;SDS011;2297;51.442;6.996;2023-03-01T07:34:54;18.98;;;10.68;;
4569;SDS011;2297;51.442;6.996;2023-03-01T07:37:21;21.27;;;11.73;;
4569;SDS011;2297;51.442;6.996;2023-03-01T07:39:47;20.02;;;10.85;;
4569;SDS011;2297;51.442;6.996;2023-03-01T07:42:14;16.88;;;10.20;;
4569;SDS011;2297;51.442;6.996;2023-03-01T07:44:40;17.20;;;10.02;;
4569;SDS011;2297;51.442;6.996;2023-03-01T07:47:07;19.60;;;9.80;;
4569;SDS011;2297;51.442;6.996;2023-03-01T07:49:34;17.45;;;9.73;;
4569;SDS011;2297;51.442;6.996;2023-03-01T07:52:02;18.35;;;9.25;;
4569;SDS011;2297;51.442;6.996;2023-03-01T07:54:29;14.52;;;9.00;;
4569;SDS011;2297;51.442;6.996;2023-03-01T07:56:56;18.52;;;10.50;;
4569;SDS011;2297;51.442;6.996;2023-03-01T07:59:22;15.15;;;8.88;;
4569;SDS011;2297;51.442;6.996;2023-03-01T08:01:53;16.88;;;9.95;;
4569;SDS011;2297;51.442;6.996;2023-03-01T08:04:20;16.15;;;9.65;;
4569;SDS011;2297;51.442;6.996;2023-03-01T08:06:47;20.42;;;10.18;;
4569;SDS011;2297;51.442;6.996;2023-03-01T08:09:15;16.80;;;9.30;;
4569;SDS011;2297;51.442;6.996;2023-03-01T08:11:41;17.27;;;9.60;;
4569;SDS011;2297;51.442;6.996;2023-03-01T08:14:08;14.75;;;9.13;;
4569;SDS011;2297;51.442;6.996;2023-03-01T08:16:35;18.38;;;9.13;;
4569;SDS011;2297;51.442;6.996;2023-03-01T08:19:03;18.45;;;9.10;;
4569;SDS011;2297;51.442;6.996;2023-03-01T08:21:30;15.00;;;9.95;;
4569;SDS011;2297;51.442;6.996;2023-03-01T08:23:57;15.68;;;9.20;;
4569;SDS011;2297;51.442;6.996;2023-03-01T08:26:25;17.65;;;9.80;;
4569;SDS011;2297;51.442;6.996;2023-03-01T08:28:51;14.23;;;9.15;;
4569;SDS011;2297;51.442;6.996;2023-03-01T08:31:19;14.80;;;8.52;;
4569;SDS011;2297;51.442;6.996;2023-03-01T08:33:47;15.32;;;8.95;;
4569;SDS011;2297;51.442;6.996;2023-03-01T08:36:20;17.58;;;9.25;;
4569;SDS011;2297;51.442;6.996;2023-03-01T08:38:47;17.55;;;8.63;;
4569;SDS011;2297;51.442;6.996;2023-03-01T08:41:13;19.15;;;8.98;;
4569;SDS011;2297;51.442;6.996;2023-03-01T08:43:42;17.52;;;9.57;;
4569;SDS011;2297;51.442;6.996;2023-03-01T08:46:09;17.80;;;9.40;;
4569;SDS011;2297;51.442;6.996;2023-03-01T08:48:36;18.85;;;8.82;;
4569;SDS011;2297;51.442;6.996;2023-03-01T08:51:09;15.45;;;8.57;;
4569;SDS011;2297;51.442;6.996;2023-03-01T08:53:39;14.88;;;8.95;;
4569;SDS011;2297;51.442;6.996;2023-03-01T08:56:06;15.52;;;8.48;;
4569;SDS011;2297;51.442;6.996;2023-03-01T08:58:34;17.13;;;8.90;;
4569;SDS011;2297;51.442;6.996;2023-03-01T09:01:04;17.10;;;8.65;;
4569;SDS011;2297;51.442;6.996;2023-03-01T09:03:33;18.27;;;9.38;;
4569;SDS011;2297;51.442;6.996;2023-03-01T09:06:00;17.23;;;9.00;;
4569;SDS011;2297;51.442;6.996;2023-03-01T09:08:27;19.42;;;9.82;;
4569;SDS011;2297;51.442;6.996;2023-03-01T09:10:54;18.40;;;9.43;;
4569;SDS011;2297;51.442;6.996;2023-03-01T09:13:21;16.05;;;9.65;;
4569;SDS011;2297;51.442;6.996;2023-03-01T09:15:49;17.30;;;8.85;;
4569;SDS011;2297;51.442;6.996;2023-03-01T09:18:18;17.42;;;9.57;;
4569;SDS011;2297;51.442;6.996;2023-03-01T09:20:44;17.15;;;9.50;;
4569;SDS011;2297;51.442;6.996;2023-03-01T09:23:11;20.05;;;10.48;;
4569;SDS011;2297;51.442;6.996;2023-03-01T09:25:38;16.42;;;9.70;;
4569;SDS011;2297;51.442;6.996;2023-03-01T09:28:04;19.25;;;9.13;;
4569;SDS011;2297;51.442;6.996;2023-03-01T09:30:31;14.65;;;8.52;;
4569;SDS011;2297;51.442;6.996;2023-03-01T09:32:58;13.57;;;7.60;;
4569;SDS011;2297;51.442;6.996;2023-03-01T09:35:26;14.95;;;7.80;;
4569;SDS011;2297;51.442;6.996;2023-03-01T09:37:53;14.32;;;7.78;;
4569;SDS011;2297;51.442;6.996;2023-03-01T09:40:20;13.90;;;7.47;;
4569;SDS011;2297;51.442;6.996;2023-03-01T09:42:52;15.32;;;7.28;;
4569;SDS011;2297;51.442;6.996;2023-03-01T09:45:24;13.07;;;7.78;;
4569;SDS011;2297;51.442;6.996;2023-03-01T09:47:54;16.80;;;8.25;;
4569;SDS011;2297;51.442;6.996;2023-03-01T09:50:22;16.45;;;7.43;;
4569;SDS011;2297;51.442;6.996;2023-03-01T09:52:54;15.85;;;8.10;;
4569;SDS011;2297;51.442;6.996;2023-03-01T09:55:29;12.32;;;7.78;;
4569;SDS011;2297;51.442;6.996;2023-03-01T09:58:00;13.88;;;7.53;;
4569;SDS011;2297;51.442;6.996;2023-03-01T10:00:44;16.02;;;8.13;;
4569;SDS011;2297;51.442;6.996;2023-03-01T10:03:14;12.85;;;7.45;;
4569;SDS011;2297;51.442;6.996;2023-03-01T10:05:50;12.90;;;7.35;;
4569;SDS011;2297;51.442;6.996;2023-03-01T10:08:26;21.65;;;8.18;;
4569;SDS011;2297;51.442;6.996;2023-03-01T10:10:56;12.70;;;7.80;;
4569;SDS011;2297;51.442;6.996;2023-03-01T10:13:24;12.70;;;7.65;;
4569;SDS011;2297;51.442;6.996;2023-03-01T10:19:04;14.60;;;7.22;;
4569;SDS011;2297;51.442;6.996;2023-03-01T10:21:36;13.10;;;7.70;;
4569;SDS011;2297;51.442;6.996;2023-03-01T10:26:43;14.88;;;7.90;;
4569;SDS011;2297;51.442;6.996;2023-03-01T10:31:41;13.65;;;7.72;;
4569;SDS011;2297;51.442;6.996;2023-03-01T10:34:11;18.88;;;7.63;;
4569;SDS011;2297;51.442;6.996;2023-03-01T10:36:41;12.00;;;7.82;;
4569;SDS011;2297;51.442;6.996;2023-03-01T10:39:14;13.48;;;7.85;;
4569;SDS011;2297;51.442;6.996;2023-03-01T10:41:52;13.23;;;7.63;;
4569;SDS011;2297;51.442;6.996;2023-03-01T10:44:36;13.55;;;6.95;;
4569;SDS011;2297;51.442;6.996;2023-03-01T10:47:04;13.57;;;7.40;;
4569;SDS011;2297;51.442;6.996;2023-03-01T10:49:37;12.80;;;6.95;;
4569;SDS011;2297;51.442;6.996;2023-03-01T10:52:11;12.32;;;6.20;;
4569;SDS011;2297;51.442;6.996;2023-03-01T10:54:46;10.40;;;6.55;;
4569;SDS011;2297;51.442;6.996;2023-03-01T10:57:35;12.85;;;6.60;;
4569;SDS011;2297;51.442;6.996;2023-03-01T11:00:21;10.88;;;5.93;;
4569;SDS011;2297;51.442;6.996;2023-03-01T11:02:50;12.50;;;7.43;;
4569;SDS011;2297;51.442;6.996;2023-03-01T11:05:29;12.90;;;6.45;;
4569;SDS011;2297;51.442;6.996;2023-03-01T11:07:58;12.07;;;6.38;;
4569;SDS011;2297;51.442;6.996;2023-03-01T11:10:28;11.00;;;6.32;;
4569;SDS011;2297;51.442;6.996;2023-03-01T11:13:06;13.23;;;5.95;;
4569;SDS011;2297;51.442;6.996;2023-03-01T11:15:34;12.30;;;6.60;;
4569;SDS011;2297;51.442;6.996;2023-03-01T11:18:01;13.20;;;6.47;;
4569;SDS011;2297;51.442;6.996;2023-03-01T11:20:29;9.80;;;6.20;;
4569;SDS011;2297;51.442;6.996;2023-03-01T11:23:01;12.55;;;7.22;;
4569;SDS011;2297;51.442;6.996;2023-03-01T11:25:33;10.35;;;6.15;;
4569;SDS011;2297;51.442;6.996;2023-03-01T11:28:03;10.15;;;6.35;;
4569;SDS011;2297;51.442;6.996;2023-03-01T11:30:31;8.75;;;5.85;;
4569;SDS011;2297;51.442;6.996;2023-03-01T11:33:13;13.35;;;7.53;;
4569;SDS011;2297;51.442;6.996;2023-03-01T11:35:47;13.65;;;7.95;;
4569;SDS011;2297;51.442;6.996;2023-03-01T11:38:22;13.15;;;6.60;;
4569;SDS011;2297;51.442;6.996;2023-03-01T11:40:54;12.50;;;6.47;;
4569;SDS011;2297;51.442;6.996;2023-03-01T11:43:33;9.95;;;6.32;;
4569;SDS011;2297;51.442;6.996;2023-03-01T11:46:32;10.52;;;6.35;;
4569;SDS011;2297;51.442;6.996;2023-03-01T11:49:12;11.60;;;6.13;;
4569;SDS011;2297;51.442;6.996;2023-03-01T11:52:03;12.27;;;6.63;;
4569;SDS011;2297;51.442;6.996;2023-03-01T11:54:41;9.48;;;6.28;;
4569;SDS011;2297;51.442;6.996;2023-03-01T11:57:20;12.85;;;6.22;;
4569;SDS011;2297;51.442;6.996;2023-03-01T12:00:11;13.57;;;6.70;;
4569;SDS011;2297;51.442;6.996;2023-03-01T12:02:49;9.93;;;6.82;;
4569;SDS011;2297;51.442;6.996;2023-03-01T12:06:00;12.88;;;6.55;;
4569;SDS011;2297;51.442;6.996;2023-03-01T12:08:49;8.68;;;6.25;;
4569;SDS011;2297;51.442;6.996;2023-03-01T12:11:27;8.65;;;5.70;;
4569;SDS011;2297;51.442;6.996;2023-03-01T12:14:13;14.05;;;7.28;;
4569;SDS011;2297;51.442;6.996;2023-03-01T12:17:11;9.98;;;6.25;;
4569;SDS011;2297;51.442;6.996;2023-03-01T12:19:56;13.30;;;6.97;;
4569;SDS011;2297;51.442;6.996;2023-03-01T12:22:43;11.30;;;6.30;;
4569;SDS011;2297;51.442;6.996;2023-03-01T12:25:20;10.20;;;6.40;;
4569;SDS011;2297;51.442;6.996;2023-03-01T12:28:04;8.75;;;6.22;;
4569;SDS011;2297;51.442;6.996;2023-03-01T12:31:00;13.35;;;7.15;;
4569;SDS011;2297;51.442;6.996;2023-03-01T12:33:54;9.38;;;6.25;;
4569;SDS011;2297;51.442;6.996;2023-03-01T12:39:29;10.75;;;6.50;;
4569;SDS011;2297;51.442;6.996;2023-03-01T12:42:05;11.02;;;6.50;;
4569;SDS011;2297;51.442;6.996;2023-03-01T12:44:44;13.95;;;7.07;;
4569;SDS011;2297;51.442;6.996;2023-03-01T12:47:26;13.20;;;7.03;;
4569;SDS011;2297;51.442;6.996;2023-03-01T12:50:02;13.50;;;7.25;;
4569;SDS011;2297;51.442;6.996;2023-03-01T12:52:38;11.88;;;6.97;;
4569;SDS011;2297;51.442;6.996;2023-03-01T12:55:16;14.02;;;6.88;;
4569;SDS011;2297;51.442;6.996;2023-03-01T12:57:53;12.50;;;7.43;;
4569;SDS011;2297;51.442;6.996;2023-03-01T13:00:31;9.52;;;6.28;;
4569;SDS011;2297;51.442;6.996;2023-03-01T13:03:04;12.32;;;6.70;;
4569;SDS011;2297;51.442;6.996;2023-03-01T13:05:41;13.10;;;6.68;;
4569;SDS011;2297;51.442;6.996;2023-03-01T13:08:19;13.55;;;6.78;;
4569;SDS011;2297;51.442;6.996;2023-03-01T13:10:55;13.00;;;7.53;;
4569;SDS011;2297;51.442;6.996;2023-03-01T13:13:27;12.40;;;6.53;;
4569;SDS011;2297;51.442;6.996;2023-03-01T13:15:54;11.57;;;7.07;;
4569;SDS011;2297;51.442;6.996;2023-03-01T13:18:33;9.18;;;6.13;;
4569;SDS011;2297;51.442;6.996;2023-03-01T13:21:00;11.77;;;6.47;;
4569;SDS011;2297;51.442;6.996;2023-03-01T13:23:30;11.52;;;6.57;;
4569;SDS011;2297;51.442;6.996;2023-03-01T13:26:01;10.77;;;7.05;;
4569;SDS011;2297;51.442;6.996;2023-03-01T13:28:38;9.45;;;6.40;;
4569;SDS011;2297;51.442;6.996;2023-03-01T13:31:07;11.95;;;7.07;;
4569;SDS011;2297;51.442;6.996;2023-03-01T13:33:43;11.52;;;6.82;;
4569;SDS011;2297;51.442;6.996;2023-03-01T13:36:11;13.20;;;6.85;;
4569;SDS011;2297;51.442;6.996;2023-03-01T13:39:26;10.32;;;6.93;;
4569;SDS011;2297;51.442;6.996;2023-03-01T13:41:56;11.65;;;6.75;;
4569;SDS011;2297;51.442;6.996;2023-03-01T13:44:25;14.13;;;7.63;;
4569;SDS011;2297;51.442;6.996;2023-03-01T13:46:56;12.88;;;6.63;;
4569;SDS011;2297;51.442;6.996;2023-03-01T13:49:26;9.75;;;6.78;;
4569;SDS011;2297;51.442;6.996;2023-03-01T13:55:06;11.80;;;7.03;;
4569;SDS011;2297;51.442;6.996;2023-03-01T13:57:44;15.57;;;7.90;;
4569;SDS011;2297;51.442;6.996;2023-03-01T14:00:25;12.32;;;6.85;;
4569;SDS011;2297;51.442;6.996;2023-03-01T14:03:01;9.75;;;6.60;;
4569;SDS011;2297;51.442;6.996;2023-03-01T14:05:40;10.15;;;6.72;;
4569;SDS011;2297;51.442;6.996;2023-03-01T14:08:21;10.23;;;6.78;;
4569;SDS011;2297;51.442;6.996;2023-03-01T14:10:54;15.13;;;7.22;;
4569;SDS011;2297;51.442;6.996;2023-03-01T14:13:45;10.00;;;6.50;;
4569;SDS011;2297;51.442;6.996;2023-03-01T14:16:22;11.52;;;7.13;;
4569;SDS011;2297;51.442;6.996;2023-03-01T14:19:00;12.63;;;7.43;;
4569;SDS011;2297;51.442;6.996;2023-03-01T14:21:36;10.90;;;7.00;;
4569;SDS011;2297;51.442;6.996;2023-03-01T14:24:03;11.20;;;6.85;;
4569;SDS011;2297;51.442;6.996;2023-03-01T14:26:30;15.38;;;7.72;;
4569;SDS011;2297;51.442;6.996;2023-03-01T14:29:01;11.10;;;6.82;;
4569;SDS011;2297;51.442;6.996;2023-03-01T14:31:32;10.82;;;6.90;;
4569;SDS011;2297;51.442;6.996;2023-03-01T14:34:02;12.13;;;7.40;;
4569;SDS011;2297;51.442;6.996;2023-03-01T14:36:30;11.70;;;7.22;;
4569;SDS011;2297;51.442;6.996;2023-03-01T14:39:00;13.48;;;8.25;;
4569;SDS011;2297;51.442;6.996;2023-03-01T14:41:30;15.07;;;7.93;;
4569;SDS011;2297;51.442;6.996;2023-03-01T14:44:00;14.25;;;8.18;;
4569;SDS011;2297;51.442;6.996;2023-03-01T14:46:30;12.02;;;7.50;;
4569;SDS011;2297;51.442;6.996;2023-03-01T14:49:01;10.45;;;6.50;;
4569;SDS011;2297;51.442;6.996;2023-03-01T14:51:30;14.05;;;6.70;;
4569;SDS011;2297;51.442;6.996;2023-03-01T14:54:02;12.10;;;6.93;;
4569;SDS011;2297;51.442;6.996;2023-03-01T14:56:43;16.75;;;8.27;;
4569;SDS011;2297;51.442;6.996;2023-03-01T14:59:11;16.00;;;8.70;;
4569;SDS011;2297;51.442;6.996;2023-03-01T15:01:39;14.68;;;7.40;;
4569;SDS011;2297;51.442;6.996;2023-03-01T15:04:06;13.27;;;7.05;;
4569;SDS011;2297;51.442;6.996;2023-03-01T15:06:37;12.90;;;7.68;;
4569;SDS011;2297;51.442;6.996;2023-03-01T15:09:06;13.20;;;7.07;;
4569;SDS011;2297;51.442;6.996;2023-03-01T15:11:33;11.40;;;6.15;;
4569;SDS011;2297;51.442;6.996;2023-03-01T15:17:16;13.75;;;6.82;;
4569;SDS011;2297;51.442;6.996;2023-03-01T15:19:50;13.55;;;7.07;;
4569;SDS011;2297;51.442;6.996;2023-03-01T15:22:16;14.15;;;6.93;;
4569;SDS011;2297;51.442;6.996;2023-03-01T15:24:47;10.15;;;6.82;;
4569;SDS011;2297;51.442;6.996;2023-03-01T15:27:15;10.63;;;6.72;;
4569;SDS011;2297;51.442;6.996;2023-03-01T15:29:47;11.55;;;7.03;;
4569;SDS011;2297;51.442;6.996;2023-03-01T15:32:26;12.80;;;7.28;;
4569;SDS011;2297;51.442;6.996;2023-03-01T15:34:55;12.90;;;7.00;;
4569;SDS011;2297;51.442;6.996;2023-03-01T15:37:39;10.80;;;7.22;;
4569;SDS011;2297;51.442;6.996;2023-03-01T15:40:21;12.65;;;7.45;;
4569;SDS011;2297;51.442;6.996;2023-03-01T15:42:56;12.50;;;7.35;;